Time;durP1;ratioP1;P1;durP2;ratioP2;P2;SDS_P1;SDS_P2;PMS_P1;PMS_P2;Temp;Humidity;BMP_temperature;BMP_pressure;BME280_temperature;BME280_humidity;BME280_pressure;Samples;Min_cycle;Max_cycle;Signal;HPM_P1;HPM_P2
2021/03/15 00:00:31;;;;;;;;;;;;;;;21.37;51.64;100317.72;2091295;28;1720;-75
2021/03/15 00:01:33;;;;;;;;;;;;;;;21.36;51.65;100314.03;2087589;28;2723;-78
2021/03/15 00:02:34;;;;;;;;;;;;;;;21.37;51.62;100317.72;2090413;28;2118;-75
2021/03/15 00:03:35;;;;;;;;;;;;;;;21.37;51.53;100314.88;2088411;28;2088;-75
2021/03/15 00:04:36;;;;;;;;;;;;;;;21.37;51.69;100309.19;2090424;28;1362;-74
2021/03/15 00:05:37;;;;;;;;;;;;;;;21.38;51.66;100319.41;2090008;28;1767;-76
2021/03/15 00:06:37;;;;;;;;;;;;;;;21.37;51.64;100312.88;2089593;28;1733;-76
2021/03/15 00:07:38;;;;;;;;;;;;;;;21.37;51.73;100315.75;2090002;28;1547;-75
2021/03/15 00:08:39;;;;;;;;;;;;;;;21.38;51.78;100325.09;2098353;28;1260;-74
2021/03/15 00:09:40;;;;;;;;;;;;;;;21.37;51.55;100312.88;2094080;28;1728;-74
2021/03/15 00:10:40;;;;;;;;;;;;;;;21.38;51.53;100316.56;2091419;28;1805;-75
2021/03/15 00:11:41;;;;;;;;;;;;;;;21.37;51.60;100312.88;2089129;28;1748;-74
2021/03/15 00:12:42;;;;;;;;;;;;;;;21.38;51.55;100316.56;2088666;28;1775;-75
2021/03/15 00:13:43;;;;;;;;;;;;;;;21.38;51.61;100311.69;2091329;28;1675;-73
2021/03/15 00:14:45;;;;;;;;;;;;;;;21.38;51.78;100316.56;2090042;28;1725;-74
2021/03/15 00:15:45;;;;;;;;;;;;;;;21.39;51.63;100312.50;2088952;28;1716;-74
2021/03/15 00:16:46;;;;;;;;;;;;;;;21.40;51.81;100314.19;2082307;28;1723;-73
2021/03/15 00:17:47;;;;;;;;;;;;;;;21.38;51.77;100306.00;2089936;28;1767;-72
2021/03/15 00:18:48;;;;;;;;;;;;;;;21.38;51.61;100311.69;2091555;28;1131;-73
2021/03/15 00:19:49;;;;;;;;;;;;;;;21.38;51.85;100308.84;2087320;28;1708;-74
2021/03/15 00:20:50;;;;;;;;;;;;;;;21.41;52.08;100310.13;2089656;28;2449;-77
2021/03/15 00:21:50;;;;;;;;;;;;;;;21.42;51.90;100317.47;2091061;28;1687;-74
2021/03/15 00:22:51;;;;;;;;;;;;;;;21.43;51.85;100314.25;2091778;28;1440;-75
2021/03/15 00:23:52;;;;;;;;;;;;;;;21.48;51.95;100307.47;2092220;28;1980;-73
2021/03/15 00:24:53;;;;;;;;;;;;;;;21.43;51.75;100308.56;2092961;28;1936;-71
2021/03/15 00:25:53;;;;;;;;;;;;;;;21.43;51.98;100307.75;2094459;28;1755;-75
2021/03/15 00:26:54;;;;;;;;;;;;;;;21.41;51.76;100310.13;2092206;28;1564;-76
2021/03/15 00:27:55;;;;;;;;;;;;;;;21.41;51.83;100313.78;2093328;28;1843;-74
2021/03/15 00:28:56;;;;;;;;;;;;;;;21.41;51.83;100304.44;2089304;28;1840;-72
2021/03/15 00:29:56;;;;;;;;;;;;;;;21.42;51.85;100318.31;2091262;28;1853;-74
2021/03/15 00:30:58;;;;;;;;;;;;;;;21.41;52.00;100310.13;2091023;28;2083;-83
2021/03/15 00:31:59;;;;;;;;;;;;;;;21.41;51.83;100310.13;2090981;28;1808;-76
2021/03/15 00:33:00;;;;;;;;;;;;;;;21.41;52.06;100305.25;2093298;28;1588;-81
2021/03/15 00:34:01;;;;;;;;;;;;;;;21.41;51.90;100308.09;2084631;28;1696;-83
2021/03/15 00:35:02;;;;;;;;;;;;;;;21.41;51.90;100310.13;2084270;28;1657;-75
2021/03/15 00:36:02;;;;;;;;;;;;;;;21.42;52.07;100312.63;2083001;28;1707;-74
2021/03/15 00:37:03;;;;;;;;;;;;;;;21.43;52.15;100313.44;2082488;28;1363;-77
2021/03/15 00:38:04;;;;;;;;;;;;;;;21.43;52.15;100307.75;2082514;28;1850;-81
2021/03/15 00:39:05;;;;;;;;;;;;;;;21.43;52.10;100308.56;2083117;28;1213;-75
2021/03/15 00:40:10;;;;;;;;;;;;;;;21.44;52.26;100309.38;2083510;28;1690;-74
2021/03/15 00:41:11;;;;;;;;;;;;;;;21.43;52.12;100313.44;2083127;28;1732;-73
2021/03/15 00:42:11;;;;;;;;;;;;;;;21.43;52.10;100299.22;2082951;28;1714;-74
2021/03/15 00:43:12;;;;;;;;;;;;;;;21.43;52.17;100304.91;2085213;28;1732;-73
2021/03/15 00:44:13;;;;;;;;;;;;;;;21.43;52.31;100307.75;2083061;28;1985;-74
2021/03/15 00:45:13;;;;;;;;;;;;;;;21.43;52.27;100302.06;2082420;28;1732;-73
2021/03/15 00:46:14;;;;;;;;;;;;;;;21.44;52.42;100304.50;2085764;28;1714;-74
2021/03/15 00:47:15;;;;;;;;;;;;;;;21.45;52.27;100305.34;2083490;28;1112;-75
2021/03/15 00:48:16;;;;;;;;;;;;;;;21.45;52.50;100299.63;2082661;28;1731;-75
2021/03/15 00:49:17;;;;;;;;;;;;;;;21.45;52.51;100303.34;2082561;28;1532;-74
2021/03/15 00:50:18;;;;;;;;;;;;;;;21.44;52.42;100293.13;2083212;28;1765;-75
2021/03/15 00:51:19;;;;;;;;;;;;;;;21.44;52.41;100301.66;2082983;28;1731;-74
2021/03/15 00:52:19;;;;;;;;;;;;;;;21.45;52.46;100299.63;2082903;28;1142;-75
2021/03/15 00:53:20;;;;;;;;;;;;;;;21.45;52.50;100291.94;2082915;28;1722;-76
2021/03/15 00:54:21;;;;;;;;;;;;;;;21.45;52.33;100296.78;2082897;28;2106;-75
2021/03/15 00:55:22;;;;;;;;;;;;;;;21.45;52.53;100297.66;2081462;28;1811;-75
2021/03/15 00:56:23;;;;;;;;;;;;;;;21.46;52.69;100295.63;2083113;28;1675;-74
2021/03/15 00:57:24;;;;;;;;;;;;;;;21.46;52.69;100290.75;2083548;28;1185;-73
2021/03/15 00:58:24;;;;;;;;;;;;;;;21.46;52.69;100301.31;2085210;28;1606;-76
2021/03/15 00:59:25;;;;;;;;;;;;;;;21.47;52.72;100291.56;2089086;28;1365;-73
2021/03/15 01:00:26;;;;;;;;;;;;;;;21.47;52.70;100302.94;2083243;28;1827;-74
2021/03/15 01:01:27;;;;;;;;;;;;;;;21.46;52.54;100302.13;2081964;28;1674;-73
2021/03/15 01:02:28;;;;;;;;;;;;;;;21.46;52.64;100299.28;2083207;28;1045;-73
2021/03/15 01:03:29;;;;;;;;;;;;;;;21.47;52.68;100300.09;2083338;28;1927;-74
2021/03/15 01:04:30;;;;;;;;;;;;;;;21.46;52.64;100293.59;2083036;28;1433;-74
2021/03/15 01:05:30;;;;;;;;;;;;;;;21.46;52.73;100299.28;2080859;28;1744;-74
2021/03/15 01:06:31;;;;;;;;;;;;;;;21.47;52.63;100302.94;2082340;28;1724;-74
2021/03/15 01:07:32;;;;;;;;;;;;;;;21.47;52.58;100294.41;2082214;28;1888;-74
2021/03/15 01:08:34;;;;;;;;;;;;;;;21.47;52.62;100302.94;2083423;28;1119;-74
2021/03/15 01:09:35;;;;;;;;;;;;;;;21.47;52.75;100297.25;2083393;28;1032;-76
2021/03/15 01:10:36;;;;;;;;;;;;;;;21.47;52.69;100305.78;2088365;28;1652;-76
2021/03/15 01:11:37;;;;;;;;;;;;;;;21.47;52.54;100303.78;2082592;28;1811;-76
2021/03/15 01:12:38;;;;;;;;;;;;;;;21.47;52.62;100298.06;2083612;28;1040;-79
2021/03/15 01:13:38;;;;;;;;;;;;;;;21.47;52.60;100297.25;2083443;28;1641;-79
2021/03/15 01:14:39;;;;;;;;;;;;;;;21.47;52.63;100295.22;2082950;28;1299;-79
2021/03/15 01:15:40;;;;;;;;;;;;;;;21.47;52.58;100302.94;2082732;28;1685;-84
2021/03/15 01:16:41;;;;;;;;;;;;;;;21.46;52.50;100292.78;2081807;28;1756;-79
2021/03/15 01:17:42;;;;;;;;;;;;;;;21.47;52.57;100298.06;2082033;28;1686;-76
2021/03/15 01:18:43;;;;;;;;;;;;;;;21.47;52.60;100294.41;2082701;28;1564;-76
2021/03/15 01:19:44;;;;;;;;;;;;;;;21.46;52.40;100302.13;2082894;28;2055;-75
2021/03/15 01:20:45;;;;;;;;;;;;;;;21.46;52.64;100292.78;2082981;28;1359;-75
2021/03/15 01:21:45;;;;;;;;;;;;;;;21.45;52.50;100289.09;2082098;28;1696;-77
2021/03/15 01:22:46;;;;;;;;;;;;;;;21.46;52.38;100290.75;2082632;28;1676;-76
2021/03/15 01:23:47;;;;;;;;;;;;;;;21.46;52.63;100295.63;2083134;28;1906;-78
2021/03/15 01:24:48;;;;;;;;;;;;;;;21.46;52.37;100298.47;2083362;28;1714;-76
2021/03/15 01:25:48;;;;;;;;;;;;;;;21.45;52.52;100294.81;2083633;28;1709;-75
2021/03/15 01:26:49;;;;;;;;;;;;;;;21.45;52.58;100291.09;2083511;28;1633;-74
2021/03/15 01:27:50;;;;;;;;;;;;;;;21.46;52.46;100298.47;2082996;28;1222;-74
2021/03/15 01:28:51;;;;;;;;;;;;;;;21.46;52.52;100289.94;2082116;28;1799;-74
2021/03/15 01:29:52;;;;;;;;;;;;;;;21.45;52.43;100286.25;2082163;28;1755;-76
2021/03/15 01:30:53;;;;;;;;;;;;;;;21.44;52.52;100283.78;2082663;28;1386;-76
2021/03/15 01:31:54;;;;;;;;;;;;;;;21.45;52.39;100288.25;2080819;28;1961;-76
2021/03/15 01:32:55;;;;;;;;;;;;;;;21.44;52.45;100286.63;2084659;28;1704;-76
2021/03/15 01:33:56;;;;;;;;;;;;;;;21.44;52.24;100293.13;2088747;28;1878;-77
2021/03/15 01:34:56;;;;;;;;;;;;;;;21.43;52.26;100291.50;2095024;28;1686;-75
2021/03/15 01:35:57;;;;;;;;;;;;;;;21.43;52.26;100288.66;2090883;28;1692;-75
2021/03/15 01:36:58;;;;;;;;;;;;;;;21.44;52.36;100290.28;2091016;28;1156;-76
2021/03/15 01:38:00;;;;;;;;;;;;;;;21.43;52.17;100293.50;2089663;28;1684;-76
2021/03/15 01:39:00;;;;;;;;;;;;;;;21.44;52.08;100295.16;2090736;28;1703;-76
2021/03/15 01:40:01;;;;;;;;;;;;;;;21.42;52.23;100295.53;2090362;28;1781;-76
2021/03/15 01:41:02;;;;;;;;;;;;;;;21.43;52.14;100293.50;2090524;28;1567;-76
2021/03/15 01:42:03;;;;;;;;;;;;;;;21.43;52.24;100299.22;2090673;28;1813;-76
2021/03/15 01:43:03;;;;;;;;;;;;;;;21.43;52.14;100285.81;2093367;28;1295;-76
2021/03/15 01:44:05;;;;;;;;;;;;;;;21.43;52.04;100290.66;2090524;28;1979;-76
2021/03/15 01:45:05;;;;;;;;;;;;;;;21.43;52.21;100290.66;2089616;28;1836;-76
2021/03/15 01:46:06;;;;;;;;;;;;;;;21.42;51.93;100289.00;2090604;28;1327;-75
2021/03/15 01:47:07;;;;;;;;;;;;;;;21.43;52.05;100284.97;2093907;28;1672;-75
2021/03/15 01:48:12;;;;;;;;;;;;;;;21.42;52.04;100284.16;2095101;28;1762;-75
2021/03/15 01:49:13;;;;;;;;;;;;;;;21.42;52.05;100278.47;2090102;28;1818;-76
2021/03/15 01:50:14;;;;;;;;;;;;;;;21.42;52.00;100283.31;2091291;28;1938;-76
2021/03/15 01:51:15;;;;;;;;;;;;;;;21.40;51.91;100280.03;2083872;28;1589;-76
2021/03/15 01:52:16;;;;;;;;;;;;;;;21.41;51.93;100278.81;2077818;28;1722;-76
2021/03/15 01:53:17;;;;;;;;;;;;;;;21.41;51.86;100281.66;2081827;28;1752;-76
2021/03/15 01:54:17;;;;;;;;;;;;;;;21.41;52.07;100279.66;2087095;28;1830;-75
2021/03/15 01:55:18;;;;;;;;;;;;;;;21.40;51.91;100277.19;2090400;28;1745;-74
2021/03/15 01:56:19;;;;;;;;;;;;;;;21.41;51.96;100275.97;2090865;28;1235;-75
2021/03/15 01:57:19;;;;;;;;;;;;;;;21.40;51.98;100269.47;2086734;28;1708;-75
2021/03/15 01:58:20;;;;;;;;;;;;;;;21.41;52.01;100273.13;2084178;28;1368;-74
2021/03/15 01:59:21;;;;;;;;;;;;;;;21.41;52.02;100264.59;2090510;28;1839;-74
2021/03/15 02:00:22;;;;;;;;;;;;;;;21.40;51.89;100269.47;2089799;28;2006;-74
2021/03/15 02:01:23;;;;;;;;;;;;;;;21.41;52.10;100264.59;2091685;28;1744;-74
2021/03/15 02:02:24;;;;;;;;;;;;;;;21.41;51.90;100273.13;2091677;28;1122;-74
2021/03/15 02:03:25;;;;;;;;;;;;;;;21.40;51.91;100263.78;2090687;28;1627;-74
2021/03/15 02:04:27;;;;;;;;;;;;;;;21.41;51.81;100258.91;2090416;28;1933;-74
2021/03/15 02:05:27;;;;;;;;;;;;;;;21.41;51.99;100258.91;2090474;28;1677;-74
2021/03/15 02:06:28;;;;;;;;;;;;;;;21.40;51.95;100249.53;2091249;28;1690;-74
2021/03/15 02:07:29;;;;;;;;;;;;;;;21.41;51.96;100259.72;2090759;28;1765;-74
2021/03/15 02:08:30;;;;;;;;;;;;;;;21.41;52.07;100253.22;2088681;28;1829;-74
2021/03/15 02:09:31;;;;;;;;;;;;;;;21.40;51.83;100255.25;2086703;28;1823;-74
2021/03/15 02:10:31;;;;;;;;;;;;;;;21.40;52.05;100251.56;2090037;28;1088;-73
2021/03/15 02:11:32;;;;;;;;;;;;;;;21.40;51.88;100252.38;2091507;28;1786;-73
2021/03/15 02:12:33;;;;;;;;;;;;;;;21.40;52.00;100254.41;2097442;28;1075;-74
2021/03/15 02:13:34;;;;;;;;;;;;;;;21.40;52.02;100248.72;2090446;28;1676;-74
2021/03/15 02:14:34;;;;;;;;;;;;;;;21.40;51.98;100251.56;2090141;28;1656;-74
2021/03/15 02:15:35;;;;;;;;;;;;;;;21.40;51.88;100255.25;2089169;28;2192;-73
2021/03/15 02:16:36;;;;;;;;;;;;;;;21.39;51.87;100250.72;2094526;28;2183;-74
2021/03/15 02:17:37;;;;;;;;;;;;;;;21.40;51.96;100249.53;2092651;28;1222;-74
2021/03/15 02:18:38;;;;;;;;;;;;;;;21.39;51.91;100250.72;2095563;28;1013;-74
2021/03/15 02:19:40;;;;;;;;;;;;;;;21.39;51.89;100249.91;2091565;28;1747;-74
2021/03/15 02:20:41;;;;;;;;;;;;;;;21.39;52.18;100245.03;2090790;28;1671;-73
2021/03/15 02:21:42;;;;;;;;;;;;;;;21.40;51.97;100254.41;2089548;28;1716;-73
2021/03/15 02:22:43;;;;;;;;;;;;;;;21.41;52.10;100244.69;2096416;28;1330;-72
2021/03/15 02:23:43;;;;;;;;;;;;;;;21.40;51.95;100246.69;2091378;28;1973;-72
2021/03/15 02:24:44;;;;;;;;;;;;;;;21.40;51.97;100241.00;2089555;28;1697;-73
2021/03/15 02:25:45;;;;;;;;;;;;;;;21.40;51.88;100248.72;2093859;28;1115;-73
2021/03/15 02:26:46;;;;;;;;;;;;;;;21.40;51.94;100243.84;2087489;28;1869;-73
2021/03/15 02:27:47;;;;;;;;;;;;;;;21.39;52.05;100236.50;2087959;28;1959;-72
2021/03/15 02:28:48;;;;;;;;;;;;;;;21.40;52.08;100241.00;2087775;28;1692;-74
2021/03/15 02:29:48;;;;;;;;;;;;;;;21.41;51.93;100241.81;2088049;28;1702;-73
2021/03/15 02:30:49;;;;;;;;;;;;;;;21.40;52.17;100243.03;2088739;28;1051;-73
2021/03/15 02:31:50;;;;;;;;;;;;;;;21.40;52.17;100238.16;2088486;28;1744;-73
2021/03/15 02:32:51;;;;;;;;;;;;;;;21.40;51.98;100234.50;2090818;28;1576;-73
2021/03/15 02:33:52;;;;;;;;;;;;;;;21.40;52.08;100235.31;2089779;28;1537;-73
2021/03/15 02:34:53;;;;;;;;;;;;;;;21.40;52.00;100234.50;2089984;28;1711;-73
2021/03/15 02:35:53;;;;;;;;;;;;;;;21.40;52.11;100232.47;2089644;28;1854;-74
2021/03/15 02:36:54;;;;;;;;;;;;;;;21.39;51.98;100230.81;2090567;28;2151;-74
2021/03/15 02:37:55;;;;;;;;;;;;;;;21.39;52.05;100229.97;2088841;28;1826;-74
2021/03/15 02:38:56;;;;;;;;;;;;;;;21.39;52.14;100224.28;2090342;28;2321;-73
2021/03/15 02:39:57;;;;;;;;;;;;;;;21.39;52.02;100230.81;2089620;28;1621;-74
2021/03/15 02:40:58;;;;;;;;;;;;;;;21.38;52.01;100226.31;2090265;28;1464;-74
2021/03/15 02:41:59;;;;;;;;;;;;;;;21.39;51.93;100227.97;2087402;28;1882;-73
2021/03/15 02:43:00;;;;;;;;;;;;;;;21.39;52.05;100227.97;2094268;28;1797;-73
2021/03/15 02:44:00;;;;;;;;;;;;;;;21.39;51.86;100227.13;2089404;28;1926;-74
2021/03/15 02:45:01;;;;;;;;;;;;;;;21.39;52.11;100224.28;2088761;28;1969;-73
2021/03/15 02:46:02;;;;;;;;;;;;;;;21.37;52.04;100230.38;2089793;28;2381;-73
2021/03/15 02:47:03;;;;;;;;;;;;;;;21.39;52.00;100229.97;2090664;28;1885;-74
2021/03/15 02:48:04;;;;;;;;;;;;;;;21.38;51.95;100242.56;2090041;28;1891;-73
2021/03/15 02:49:05;;;;;;;;;;;;;;;21.39;52.13;100229.97;2087255;28;2120;-73
2021/03/15 02:50:06;;;;;;;;;;;;;;;21.39;52.00;100227.13;2091192;28;1766;-74
2021/03/15 02:51:06;;;;;;;;;;;;;;;21.39;52.13;100227.13;2089756;28;1912;-74
2021/03/15 02:52:07;;;;;;;;;;;;;;;21.38;51.94;100231.19;2093252;28;2207;-73
2021/03/15 02:53:08;;;;;;;;;;;;;;;21.38;52.08;100232.00;2089835;28;1766;-73
2021/03/15 02:54:09;;;;;;;;;;;;;;;21.38;52.00;100232.00;2088625;28;1895;-73
2021/03/15 02:55:09;;;;;;;;;;;;;;;21.38;52.13;100225.50;2085571;28;2381;-74
2021/03/15 02:56:10;;;;;;;;;;;;;;;21.39;52.21;100229.97;2091926;28;1873;-74
2021/03/15 02:57:11;;;;;;;;;;;;;;;21.38;51.98;100231.19;2089324;28;1701;-74
2021/03/15 02:58:12;;;;;;;;;;;;;;;21.39;52.20;100227.13;2087178;28;2178;-73
2021/03/15 02:59:12;;;;;;;;;;;;;;;21.39;52.08;100227.13;2089854;28;1621;-73
2021/03/15 03:00:13;;;;;;;;;;;;;;;21.38;52.21;100220.63;2090108;28;1436;-72
2021/03/15 03:01:14;;;;;;;;;;;;;;;21.39;52.14;100227.13;2093229;28;1834;-73
2021/03/15 03:02:15;;;;;;;;;;;;;;;21.38;52.02;100222.66;2089495;28;1572;-74
2021/03/15 03:03:15;;;;;;;;;;;;;;;21.39;52.07;100232.81;2089778;28;1750;-73
2021/03/15 03:04:16;;;;;;;;;;;;;;;21.38;51.99;100226.31;2088587;28;2138;-73
2021/03/15 03:05:17;;;;;;;;;;;;;;;21.38;52.20;100232.00;2088545;28;1752;-74
2021/03/15 03:06:18;;;;;;;;;;;;;;;21.38;52.04;100231.19;2089651;28;1716;-74
2021/03/15 03:07:19;;;;;;;;;;;;;;;21.38;52.00;100228.34;2089175;28;1858;-74
2021/03/15 03:08:20;;;;;;;;;;;;;;;21.37;52.13;100227.53;2086256;28;1630;-73
2021/03/15 03:09:20;;;;;;;;;;;;;;;21.38;52.15;100234.03;2086387;28;1507;-74
2021/03/15 03:10:21;;;;;;;;;;;;;;;21.37;52.16;100223.84;2093145;28;1849;-73
2021/03/15 03:11:22;;;;;;;;;;;;;;;21.38;52.05;100228.34;2089742;28;1758;-73
2021/03/15 03:12:23;;;;;;;;;;;;;;;21.38;52.03;100231.19;2090433;28;1142;-73
2021/03/15 03:13:24;;;;;;;;;;;;;;;21.38;52.14;100231.19;2090232;28;1877;-73
2021/03/15 03:14:26;;;;;;;;;;;;;;;21.39;52.06;100232.81;2089843;28;1340;-72
2021/03/15 03:15:27;;;;;;;;;;;;;;;21.38;52.19;100229.16;2089873;28;1708;-73
2021/03/15 03:16:27;;;;;;;;;;;;;;;21.38;52.08;100234.03;2093162;28;1828;-74
2021/03/15 03:17:28;;;;;;;;;;;;;;;21.38;52.34;100236.88;2089717;28;1605;-74
2021/03/15 03:18:29;;;;;;;;;;;;;;;21.38;52.21;100226.31;2091989;28;1826;-74
2021/03/15 03:19:30;;;;;;;;;;;;;;;21.37;52.15;100238.06;2087409;28;1917;-74
2021/03/15 03:20:31;;;;;;;;;;;;;;;21.38;52.36;100231.19;2090559;28;1290;-74
2021/03/15 03:21:32;;;;;;;;;;;;;;;21.38;52.25;100225.50;2090658;28;1536;-73
2021/03/15 03:22:33;;;;;;;;;;;;;;;21.38;52.14;100232.00;2089153;28;1819;-73
2021/03/15 03:23:33;;;;;;;;;;;;;;;21.37;52.18;100227.53;2089392;28;1726;-74
2021/03/15 03:24:34;;;;;;;;;;;;;;;21.39;52.35;100232.81;2089225;28;1909;-74
2021/03/15 03:25:35;;;;;;;;;;;;;;;21.39;52.26;100232.81;2088203;28;2352;-74
2021/03/15 03:26:35;;;;;;;;;;;;;;;21.38;52.22;100229.16;2088752;28;1881;-74
2021/03/15 03:27:36;;;;;;;;;;;;;;;21.38;52.29;100231.19;2089297;28;1909;-74
2021/03/15 03:28:37;;;;;;;;;;;;;;;21.39;52.48;100238.53;2089760;28;1909;-74
2021/03/15 03:29:38;;;;;;;;;;;;;;;21.39;52.19;100229.97;2089483;28;1694;-74
2021/03/15 03:30:39;;;;;;;;;;;;;;;21.38;52.57;100232.00;2088460;28;1777;-74
2021/03/15 03:31:39;;;;;;;;;;;;;;;21.39;52.35;100235.69;2089141;28;1913;-74
2021/03/15 03:32:40;;;;;;;;;;;;;;;21.39;52.46;100224.28;2090101;28;1579;-74
2021/03/15 03:33:41;;;;;;;;;;;;;;;21.38;52.48;100225.50;2085503;28;1915;-74
2021/03/15 03:34:42;;;;;;;;;;;;;;;21.38;52.44;100220.63;2089496;28;1561;-74
2021/03/15 03:35:43;;;;;;;;;;;;;;;21.39;52.71;100222.25;2089353;28;1774;-74
2021/03/15 03:36:44;;;;;;;;;;;;;;;21.38;52.48;100222.66;2085276;28;1917;-74
2021/03/15 03:37:44;;;;;;;;;;;;;;;21.38;52.51;100226.31;2086829;28;1709;-74
2021/03/15 03:38:45;;;;;;;;;;;;;;;21.38;52.50;100217.78;2090328;28;1029;-74
2021/03/15 03:39:46;;;;;;;;;;;;;;;21.38;52.69;100217.78;2086760;28;2356;-74
2021/03/15 03:40:47;;;;;;;;;;;;;;;21.39;52.50;100218.59;2088166;28;1823;-75
2021/03/15 03:41:47;;;;;;;;;;;;;;;21.38;52.69;100220.63;2089898;28;1762;-75
2021/03/15 03:42:48;;;;;;;;;;;;;;;21.38;52.81;100214.13;2087948;28;1910;-74
2021/03/15 03:43:49;;;;;;;;;;;;;;;21.38;52.61;100222.66;2090112;28;1981;-74
2021/03/15 03:44:49;;;;;;;;;;;;;;;21.38;52.82;100214.94;2085365;28;2457;-75
2021/03/15 03:45:50;;;;;;;;;;;;;;;21.38;52.73;100211.28;2088330;28;1991;-74
2021/03/15 03:46:51;;;;;;;;;;;;;;;21.38;52.64;100214.94;2090066;28;1803;-74
2021/03/15 03:47:52;;;;;;;;;;;;;;;21.38;52.78;100211.28;2090073;28;1926;-74
2021/03/15 03:48:53;;;;;;;;;;;;;;;21.38;52.84;100214.13;2088432;28;1720;-74
2021/03/15 03:49:54;;;;;;;;;;;;;;;21.39;52.87;100215.75;2088616;28;1694;-75
2021/03/15 03:50:55;;;;;;;;;;;;;;;21.40;52.97;100214.56;2089878;28;1741;-74
2021/03/15 03:51:56;;;;;;;;;;;;;;;21.38;52.88;100209.25;2089836;28;1627;-74
2021/03/15 03:52:56;;;;;;;;;;;;;;;21.38;52.91;100209.25;2089138;28;2597;-75
2021/03/15 03:53:57;;;;;;;;;;;;;;;21.38;52.86;100217.78;2088626;28;1819;-75
2021/03/15 03:54:58;;;;;;;;;;;;;;;21.39;52.85;100210.88;2091203;28;1079;-74
2021/03/15 03:55:59;;;;;;;;;;;;;;;21.38;52.82;100208.44;2088193;28;1929;-75
2021/03/15 03:57:01;;;;;;;;;;;;;;;21.39;52.63;100215.75;2087660;28;1216;-75
2021/03/15 03:58:02;;;;;;;;;;;;;;;21.38;52.95;100209.25;2092214;28;2293;-75
2021/03/15 03:59:03;;;;;;;;;;;;;;;21.38;52.84;100208.44;2091749;28;1771;-76
2021/03/15 04:00:04;;;;;;;;;;;;;;;21.39;52.67;100215.75;2092032;28;1725;-75
2021/03/15 04:01:05;;;;;;;;;;;;;;;21.39;52.74;100212.91;2092776;28;1437;-75
2021/03/15 04:02:06;;;;;;;;;;;;;;;21.39;52.76;100212.91;2093090;28;1475;-75
2021/03/15 04:03:08;;;;;;;;;;;;;;;21.38;52.90;100208.44;2091956;28;1849;-74
2021/03/15 04:04:09;;;;;;;;;;;;;;;21.38;52.99;100211.28;2090980;28;1898;-75
2021/03/15 04:05:10;;;;;;;;;;;;;;;21.38;52.84;100212.09;2092264;28;1675;-75
2021/03/15 04:06:10;;;;;;;;;;;;;;;21.38;52.84;100212.09;2091808;28;1910;-75
2021/03/15 04:07:16;;;;;;;;;;;;;;;21.38;52.93;100216.97;2092642;28;1706;-74
2021/03/15 04:08:17;;;;;;;;;;;;;;;21.37;52.75;100213.28;2096610;28;1522;-73
2021/03/15 04:09:18;;;;;;;;;;;;;;;21.37;52.87;100213.28;2092916;28;1131;-74
2021/03/15 04:10:18;;;;;;;;;;;;;;;21.37;52.94;100216.16;2090145;28;2603;-74
2021/03/15 04:11:20;;;;;;;;;;;;;;;21.37;52.87;100216.16;2092891;28;1092;-74
2021/03/15 04:12:20;;;;;;;;;;;;;;;21.37;52.92;100216.16;2092322;28;1432;-74
2021/03/15 04:13:21;;;;;;;;;;;;;;;21.37;52.94;100215.28;2088888;28;1815;-74
2021/03/15 04:14:22;;;;;;;;;;;;;;;21.37;52.94;100215.28;2095769;28;1803;-73
2021/03/15 04:15:23;;;;;;;;;;;;;;;21.37;52.73;100219.00;2092609;28;1173;-74
2021/03/15 04:16:23;;;;;;;;;;;;;;;21.36;52.79;100211.59;2092387;28;2038;-72
2021/03/15 04:17:24;;;;;;;;;;;;;;;21.37;52.88;100216.16;2101146;28;1080;-73
2021/03/15 04:18:25;;;;;;;;;;;;;;;21.38;52.83;100214.13;2091875;28;1799;-74
2021/03/15 04:19:26;;;;;;;;;;;;;;;21.37;52.90;100218.13;2092848;28;1393;-73
2021/03/15 04:20:27;;;;;;;;;;;;;;;21.37;52.94;100215.28;2084552;28;1032;-73
2021/03/15 04:21:28;;;;;;;;;;;;;;;21.37;52.86;100215.28;2090571;28;1989;-73
2021/03/15 04:22:28;;;;;;;;;;;;;;;21.37;52.85;100220.97;2090482;28;2043;-73
2021/03/15 04:23:29;;;;;;;;;;;;;;;21.37;52.77;100215.28;2092016;28;1748;-73
2021/03/15 04:24:30;;;;;;;;;;;;;;;21.35;52.87;100213.63;2089227;28;1950;-74
2021/03/15 04:25:32;;;;;;;;;;;;;;;21.36;52.79;100211.59;2091384;28;1697;-74
2021/03/15 04:26:34;;;;;;;;;;;;;;;21.36;52.68;100208.75;2090898;28;1775;-74
2021/03/15 04:27:34;;;;;;;;;;;;;;;21.35;52.76;100210.78;2092225;28;1795;-73
2021/03/15 04:28:35;;;;;;;;;;;;;;;21.35;52.80;100210.78;2091898;28;2031;-74
2021/03/15 04:29:36;;;;;;;;;;;;;;;21.35;52.75;100213.63;2090120;28;2214;-73
2021/03/15 04:30:37;;;;;;;;;;;;;;;21.35;52.68;100213.63;2079937;28;2142;-73
2021/03/15 04:31:37;;;;;;;;;;;;;;;21.36;52.96;100211.59;2082453;28;1842;-75
2021/03/15 04:32:38;;;;;;;;;;;;;;;21.35;52.93;100210.78;2091122;28;1814;-72
2021/03/15 04:33:39;;;;;;;;;;;;;;;21.37;52.90;100212.44;2092256;28;1891;-71
2021/03/15 04:34:40;;;;;;;;;;;;;;;21.37;53.03;100215.28;2092333;28;1807;-71
2021/03/15 04:35:41;;;;;;;;;;;;;;;21.37;52.71;100215.28;2090177;28;1827;-71
2021/03/15 04:36:42;;;;;;;;;;;;;;;21.37;52.90;100212.44;2087867;28;1986;-72
2021/03/15 04:37:44;;;;;;;;;;;;;;;21.37;52.80;100206.75;2097778;28;1808;-71
2021/03/15 04:38:45;;;;;;;;;;;;;;;21.37;52.85;100206.75;2092165;28;1866;-72
2021/03/15 04:39:46;;;;;;;;;;;;;;;21.37;52.93;100216.16;2092167;28;1874;-72
2021/03/15 04:40:48;;;;;;;;;;;;;;;21.37;52.85;100213.28;2092561;28;1080;-72
2021/03/15 04:41:49;;;;;;;;;;;;;;;21.37;52.69;100212.44;2087015;28;1305;-72
2021/03/15 04:42:49;;;;;;;;;;;;;;;21.37;52.89;100213.28;2092528;28;1131;-72
2021/03/15 04:43:50;;;;;;;;;;;;;;;21.37;52.75;100209.59;2089042;28;1264;-72
2021/03/15 04:44:51;;;;;;;;;;;;;;;21.36;52.94;100200.22;2091835;28;1922;-71
2021/03/15 04:45:52;;;;;;;;;;;;;;;21.37;52.91;100209.59;2089270;28;2314;-72
2021/03/15 04:46:53;;;;;;;;;;;;;;;21.37;52.75;100213.28;2092792;28;1241;-72
2021/03/15 04:47:54;;;;;;;;;;;;;;;21.37;52.90;100216.16;2086606;28;1904;-72
2021/03/15 04:48:55;;;;;;;;;;;;;;;21.37;52.84;100206.75;2093512;28;1112;-72
2021/03/15 04:49:55;;;;;;;;;;;;;;;21.36;52.86;100214.44;2093932;28;1440;-72
2021/03/15 04:50:57;;;;;;;;;;;;;;;21.37;52.93;100213.28;2092544;28;1123;-72
2021/03/15 04:51:58;;;;;;;;;;;;;;;21.37;52.82;100212.44;2092443;28;1044;-72
2021/03/15 04:52:58;;;;;;;;;;;;;;;21.37;52.82;100212.44;2092243;28;2376;-73
2021/03/15 04:53:59;;;;;;;;;;;;;;;21.37;52.93;100213.28;2092097;28;1810;-72
2021/03/15 04:55:00;;;;;;;;;;;;;;;21.37;52.87;100215.28;2091489;28;2272;-71
2021/03/15 04:56:01;;;;;;;;;;;;;;;21.38;52.78;100214.13;2088408;28;1705;-72
2021/03/15 04:57:02;;;;;;;;;;;;;;;21.37;52.77;100215.28;2090097;28;1107;-72
2021/03/15 04:58:03;;;;;;;;;;;;;;;21.37;52.65;100220.97;2090277;28;2117;-71
2021/03/15 04:59:04;;;;;;;;;;;;;;;21.37;52.80;100215.28;2092543;28;1119;-71
2021/03/15 05:00:06;;;;;;;;;;;;;;;21.37;52.83;100215.28;2091906;28;1310;-72
2021/03/15 05:01:07;;;;;;;;;;;;;;;21.37;52.87;100212.44;2092176;28;1119;-72
2021/03/15 05:02:08;;;;;;;;;;;;;;;21.37;53.06;100215.28;2092342;28;1590;-72
2021/03/15 05:03:09;;;;;;;;;;;;;;;21.37;52.80;100216.16;2091593;28;1708;-73
2021/03/15 05:04:10;;;;;;;;;;;;;;;21.37;52.78;100216.16;2091921;28;1109;-73
2021/03/15 05:05:11;;;;;;;;;;;;;;;21.37;52.84;100212.44;2090711;28;1910;-72
2021/03/15 05:06:12;;;;;;;;;;;;;;;21.37;52.90;100215.28;2091811;28;1819;-73
2021/03/15 05:07:13;;;;;;;;;;;;;;;21.37;52.96;100215.28;2090182;28;1753;-72
2021/03/15 05:08:24;;;;;;;;;;;;;;;21.36;52.76;100214.44;2091173;28;1139;-72
2021/03/15 05:09:25;;;;;;;;;;;;;;;21.35;52.85;100216.47;2090802;28;1164;-72
2021/03/15 05:10:26;;;;;;;;;;;;;;;21.35;52.76;100216.47;2087983;28;1985;-73
2021/03/15 05:11:27;;;;;;;;;;;;;;;21.36;52.86;100214.44;2087127;28;2009;-73
2021/03/15 05:12:28;;;;;;;;;;;;;;;21.35;52.91;100210.78;2090404;28;1704;-73
2021/03/15 05:13:29;;;;;;;;;;;;;;;21.35;52.88;100207.94;2088847;28;1837;-73
2021/03/15 05:14:29;;;;;;;;;;;;;;;21.35;52.79;100210.78;2089145;28;1905;-73
2021/03/15 05:15:30;;;;;;;;;;;;;;;21.35;52.83;100207.13;2090268;28;1767;-73
2021/03/15 05:16:31;;;;;;;;;;;;;;;21.34;52.74;100209.13;2090884;28;1574;-73
2021/03/15 05:17:32;;;;;;;;;;;;;;;21.35;52.90;100210.78;2079897;28;1073;-73